createdAt,value
2023-05-05T00:00:06.307Z,7.89
2023-05-05T00:05:31.137Z,7.91
2023-05-05T00:10:53.976Z,7.97
2023-05-05T00:16:16.376Z,7.94
2023-05-05T00:21:38.863Z,7.96
2023-05-05T00:27:02.394Z,7.94
2023-05-05T00:32:24.746Z,7.96
2023-05-05T00:37:47.415Z,7.93
2023-05-05T00:43:09.821Z,7.94
2023-05-05T00:48:32.600Z,7.91
2023-05-05T00:53:55.215Z,7.87
2023-05-05T00:59:18.000Z,7.83
2023-05-05T01:04:40.381Z,7.79
2023-05-05T01:10:22.384Z,7.75
2023-05-05T01:16:01.360Z,7.71
2023-05-05T01:21:34.194Z,7.65
2023-05-05T01:27:20.625Z,7.61
2023-05-05T01:32:50.562Z,7.53
2023-05-05T01:38:32.947Z,7.45
2023-05-05T01:43:58.629Z,7.39
2023-05-05T01:49:22.751Z,7.34
2023-05-05T01:54:47.323Z,7.20
2023-05-05T02:00:11.961Z,7.17
2023-05-05T02:05:37.002Z,7.06
2023-05-05T02:11:01.142Z,7.02
2023-05-05T02:16:26.093Z,7.00
2023-05-05T02:21:48.467Z,6.97
2023-05-05T02:27:13.095Z,6.93
2023-05-05T02:32:40.253Z,6.91
2023-05-05T02:38:07.394Z,6.88
2023-05-05T02:43:32.445Z,6.84
2023-05-05T02:48:54.676Z,6.86
2023-05-05T02:54:17.904Z,6.86
2023-05-05T03:00:03.165Z,6.82
2023-05-05T03:05:32.211Z,6.82
2023-05-05T03:10:59.496Z,6.84
2023-05-05T03:16:25.210Z,6.84
2023-05-05T03:21:48.493Z,6.85
2023-05-05T03:27:10.889Z,6.87
2023-05-05T03:32:33.613Z,6.90
2023-05-05T03:37:56.024Z,6.92
2023-05-05T03:43:20.491Z,6.89
2023-05-05T03:48:42.898Z,6.90
2023-05-05T03:54:05.196Z,6.94
2023-05-05T03:59:27.553Z,6.93
2023-05-05T04:04:49.964Z,6.92
2023-05-05T04:10:14.007Z,6.86
2023-05-05T04:15:36.480Z,6.92
2023-05-05T04:20:59.147Z,6.95
2023-05-05T04:26:21.400Z,6.98
2023-05-05T04:31:43.702Z,7.01
2023-05-05T04:37:05.997Z,7.05
2023-05-05T04:42:28.279Z,7.12
2023-05-05T04:47:51.308Z,7.24
2023-05-05T04:53:13.576Z,7.25
2023-05-05T04:58:36.414Z,7.22
2023-05-05T05:03:58.899Z,7.21
2023-05-05T05:09:21.546Z,7.19
2023-05-05T05:14:45.918Z,7.22
2023-05-05T05:20:08.432Z,7.20
2023-05-05T05:25:31.226Z,7.15
2023-05-05T05:30:53.486Z,7.17
2023-05-05T05:36:16.368Z,7.17
2023-05-05T05:41:38.610Z,7.21
2023-05-05T05:47:01.443Z,7.18
2023-05-05T05:52:23.710Z,7.22
2023-05-05T05:57:46.268Z,7.19
2023-05-05T06:03:09.119Z,7.25
2023-05-05T06:08:31.775Z,7.21
2023-05-05T06:13:54.096Z,7.14
2023-05-05T06:19:16.356Z,7.19
2023-05-05T06:24:38.692Z,7.13
2023-05-05T06:30:01.069Z,7.13
2023-05-05T06:35:24.770Z,7.10
2023-05-05T06:40:47.060Z,7.11
2023-05-05T06:46:09.322Z,7.05
2023-05-05T06:51:31.778Z,7.02
2023-05-05T06:56:54.087Z,7.01
2023-05-05T07:02:16.776Z,7.15
2023-05-05T07:07:39.314Z,7.09
2023-05-05T07:13:02.223Z,7.18
2023-05-05T07:18:25.669Z,7.24
2023-05-05T07:23:48.304Z,7.29
2023-05-05T07:29:11.780Z,7.34
2023-05-05T07:34:34.978Z,7.43
2023-05-05T07:39:57.873Z,7.54
2023-05-05T07:45:20.867Z,7.69
2023-05-05T07:50:43.475Z,7.96
2023-05-05T07:56:08.272Z,8.01
2023-05-05T08:01:30.644Z,7.99
2023-05-05T08:06:53.025Z,8.17
2023-05-05T08:12:17.037Z,8.26
2023-05-05T08:17:44.066Z,8.16
2023-05-05T08:23:22.875Z,8.65
2023-05-05T08:28:49.163Z,8.61
2023-05-05T08:34:11.957Z,8.66
2023-05-05T08:39:34.404Z,8.85
2023-05-05T08:44:58.877Z,8.93
2023-05-05T08:50:23.239Z,9.37
2023-05-05T08:56:01.969Z,9.81
2023-05-05T09:01:24.817Z,9.75
2023-05-05T09:06:47.906Z,9.64
2023-05-05T09:12:11.787Z,9.72
2023-05-05T09:17:45.050Z,9.82
2023-05-05T09:23:09.530Z,10.57
2023-05-05T09:28:37.877Z,11.32
2023-05-05T09:39:35.358Z,12.07
2023-05-05T09:45:05.950Z,12.37
2023-05-05T09:50:23.840Z,13.50
2023-05-05T09:55:46.180Z,14.01
2023-05-05T10:01:09.670Z,13.22
2023-05-05T10:06:50.665Z,12.83
2023-05-05T10:12:14.533Z,13.48
2023-05-05T10:18:02.372Z,14.23
2023-05-05T10:23:15.930Z,14.59
2023-05-05T10:28:55.438Z,14.31
2023-05-05T10:34:44.176Z,13.68
2023-05-05T10:40:08.859Z,13.68
2023-05-05T10:45:31.620Z,13.68
2023-05-05T10:51:39.978Z,13.36
2023-05-05T10:57:04.252Z,13.08
2023-05-05T11:02:41.757Z,12.89
2023-05-05T11:08:05.456Z,12.66
2023-05-05T11:13:33.036Z,12.43
2023-05-05T11:18:56.322Z,12.58
2023-05-05T11:24:36.224Z,12.46
2023-05-05T11:30:19.106Z,12.31
2023-05-05T11:36:02.811Z,12.67
2023-05-05T11:42:20.329Z,13.35
2023-05-05T11:47:45.078Z,13.13
2023-05-05T11:53:07.742Z,13.28
2023-05-05T11:58:36.668Z,13.63
2023-05-05T12:04:00.059Z,14.08
2023-05-05T12:09:29.725Z,15.59
2023-05-05T12:14:59.404Z,16.01
2023-05-05T12:20:22.183Z,16.67
2023-05-05T12:25:48.425Z,16.96
2023-05-05T12:31:17.215Z,17.38
2023-05-05T12:36:40.494Z,17.37
2023-05-05T12:42:04.997Z,16.99
2023-05-05T12:47:37.957Z,16.78
2023-05-05T12:53:01.767Z,17.35
2023-05-05T12:58:24.152Z,17.04
2023-05-05T13:03:47.221Z,17.85
2023-05-05T13:09:14.129Z,16.58
2023-05-05T13:14:36.729Z,16.24
2023-05-05T13:19:58.972Z,17.49
2023-05-05T13:25:21.851Z,17.45
2023-05-05T13:30:44.799Z,17.19
2023-05-05T13:36:08.897Z,16.43
2023-05-05T13:41:32.272Z,15.87
2023-05-05T13:46:55.739Z,15.87
2023-05-05T13:52:18.448Z,15.68
2023-05-05T13:57:41.083Z,15.64
2023-05-05T14:03:03.763Z,15.35
2023-05-05T14:08:26.651Z,15.12
2023-05-05T14:13:49.215Z,15.20
2023-05-05T14:19:11.619Z,15.38
2023-05-05T14:24:33.950Z,15.53
2023-05-05T14:29:56.665Z,15.47
2023-05-05T14:35:19.594Z,14.96
2023-05-05T14:40:42.092Z,15.25
2023-05-05T14:46:06.115Z,15.28
2023-05-05T14:51:28.671Z,14.88
2023-05-05T14:56:51.825Z,14.59
2023-05-05T15:02:14.471Z,14.68
2023-05-05T15:07:37.018Z,14.68
2023-05-05T15:12:59.494Z,15.03
2023-05-05T15:18:22.213Z,14.56
2023-05-05T15:23:44.736Z,14.22
2023-05-05T15:29:07.514Z,13.94
2023-05-05T15:34:29.927Z,14.03
2023-05-05T15:39:52.245Z,14.06
2023-05-05T15:45:16.293Z,14.32
2023-05-05T15:50:38.691Z,14.39
2023-05-05T15:56:01.333Z,14.07
2023-05-05T16:01:23.933Z,13.63
2023-05-05T16:06:47.487Z,13.18
2023-05-05T16:12:13.511Z,13.19
2023-05-05T16:17:36.347Z,13.22
2023-05-05T16:22:59.261Z,13.28
2023-05-05T16:28:22.428Z,13.13
2023-05-05T16:33:45.834Z,13.09
2023-05-05T16:39:08.723Z,12.82
2023-05-05T16:44:31.355Z,12.91
2023-05-05T16:49:53.782Z,13.39
2023-05-05T16:55:16.427Z,13.42
2023-05-05T17:00:39.957Z,13.60
2023-05-05T17:06:02.620Z,12.28
2023-05-05T17:11:24.962Z,11.22
2023-05-05T17:16:47.776Z,10.64
2023-05-05T17:22:10.288Z,10.40
2023-05-05T17:27:32.956Z,10.04
2023-05-05T17:32:56.130Z,9.73
2023-05-05T17:38:20.089Z,9.57
2023-05-05T17:43:42.808Z,9.40
2023-05-05T17:49:06.068Z,9.18
2023-05-05T17:54:29.460Z,9.00
2023-05-05T17:59:53.901Z,8.81
2023-05-05T18:05:16.862Z,8.65
2023-05-05T18:10:39.570Z,8.48
2023-05-05T18:16:02.687Z,8.28
2023-05-05T18:21:31.372Z,8.11
2023-05-05T18:26:55.680Z,7.85
2023-05-05T18:32:19.117Z,7.67
2023-05-05T18:37:42.684Z,7.52
2023-05-05T18:43:05.507Z,7.37
2023-05-05T18:48:28.200Z,7.28
2023-05-05T18:53:50.603Z,7.20
2023-05-05T18:59:13.048Z,7.06
2023-05-05T19:04:37.107Z,6.92
2023-05-05T19:09:59.408Z,6.82
2023-05-05T19:15:22.160Z,6.65
2023-05-05T19:20:45.046Z,6.55
2023-05-05T19:26:09.388Z,6.44
2023-05-05T19:31:31.822Z,6.36
2023-05-05T19:36:54.358Z,6.26
2023-05-05T19:42:17.053Z,6.15
2023-05-05T19:47:39.690Z,6.10
2023-05-05T19:53:02.570Z,5.92
2023-05-05T19:58:25.041Z,5.79
2023-05-05T20:03:48.156Z,5.76
2023-05-05T20:09:11.336Z,5.79
2023-05-05T20:14:33.814Z,5.79
2023-05-05T20:19:58.238Z,5.71
2023-05-05T20:25:21.029Z,5.67
2023-05-05T20:30:43.298Z,5.57
2023-05-05T20:36:06.003Z,5.50
2023-05-05T20:41:28.335Z,5.49
2023-05-05T20:47:18.489Z,5.42
2023-05-05T20:52:53.134Z,5.44
2023-05-05T20:58:16.921Z,5.31
2023-05-05T21:03:39.175Z,5.26
2023-05-05T21:09:02.062Z,5.28
2023-05-05T21:14:24.715Z,5.20
2023-05-05T21:19:47.137Z,5.21
2023-05-05T21:25:21.088Z,5.19
2023-05-05T21:30:44.266Z,5.17
2023-05-05T21:36:07.352Z,5.18
2023-05-05T21:41:30.051Z,5.17
2023-05-05T21:46:53.063Z,5.19
2023-05-05T21:52:15.256Z,5.20
2023-05-05T21:57:37.654Z,5.11
2023-05-05T22:02:59.920Z,5.08
2023-05-05T22:08:22.362Z,5.06
2023-05-05T22:13:44.598Z,5.00
2023-05-05T22:19:07.114Z,4.94
2023-05-05T22:24:29.626Z,4.90
2023-05-05T22:29:51.857Z,4.82
2023-05-05T22:35:14.331Z,4.85
2023-05-05T22:40:36.556Z,4.74
2023-05-05T22:45:59.290Z,4.68
2023-05-05T22:51:21.531Z,4.66
2023-05-05T22:56:43.886Z,4.63
2023-05-05T23:02:06.154Z,4.63
2023-05-05T23:07:28.389Z,4.61
2023-05-05T23:12:50.804Z,4.58
2023-05-05T23:18:13.361Z,4.57
2023-05-05T23:23:36.148Z,4.49
2023-05-05T23:28:58.515Z,4.45
2023-05-05T23:34:21.316Z,4.45
2023-05-05T23:39:45.162Z,4.45
2023-05-05T23:45:07.557Z,4.40
2023-05-05T23:50:30.583Z,4.39
2023-05-05T23:55:53.051Z,4.40
